Time;durP1;ratioP1;P1;durP2;ratioP2;P2;SDS_P1;SDS_P2;PMS_P1;PMS_P2;Temp;Humidity;BMP_temperature;BMP_pressure;BME280_temperature;BME280_humidity;BME280_pressure;Samples;Min_cycle;Max_cycle;Signal;HPM_P1;HPM_P2
2021/03/28 00:00:05;;;;;;;20.42;3.45;;;;;;;;;;4956937;28;20760;-73
2021/03/28 00:02:36;;;;;;;22.45;3.70;;;;;;;;;;4959843;28;20035;-73
2021/03/28 00:05:14;;;;;;;18.20;3.60;;;;;;;;;;4957082;28;20031;-72
2021/03/28 00:07:46;;;;;;;20.80;3.13;;;;;;;;;;4952064;28;20023;-74
2021/03/28 00:10:24;;;;;;;16.98;3.95;;;;;;;;;;4959203;28;20118;-73
2021/03/28 00:12:51;;;;;;;17.85;3.60;;;;;;;;;;4955857;28;20082;-74
2021/03/28 00:15:21;;;;;;;22.13;3.45;;;;;;;;;;4956423;28;20032;-73
2021/03/28 00:17:50;;;;;;;17.33;2.50;;;;;;;;;;4957013;28;20377;-74
2021/03/28 00:20:16;;;;;;;13.10;2.78;;;;;;;;;;4952376;28;20499;-72
2021/03/28 00:22:46;;;;;;;20.52;3.95;;;;;;;;;;4957726;28;20077;-73
2021/03/28 00:25:12;;;;;;;;;;;;;;;;;;4954494;28;20106;-73
2021/03/28 00:27:40;;;;;;;20.45;4.03;;;;;;;;;;4956844;28;20028;-73
2021/03/28 00:30:27;;;;;;;17.02;4.07;;;;;;;;;;4953507;28;20031;-73
2021/03/28 00:32:56;;;;;;;13.13;4.05;;;;;;;;;;4966085;28;20057;-72
2021/03/28 00:35:25;;;;;;;19.13;4.70;;;;;;;;;;4968005;28;20058;-73
2021/03/28 00:38:10;;;;;;;18.98;3.63;;;;;;;;;;4956432;28;20027;-72
2021/03/28 00:40:36;;;;;;;13.50;2.58;;;;;;;;;;4951645;28;20110;-73
2021/03/28 00:43:21;;;;;;;25.27;4.28;;;;;;;;;;4965116;28;20022;-73
2021/03/28 00:45:56;;;;;;;14.98;3.25;;;;;;;;;;4962176;28;20113;-72
2021/03/28 00:48:29;;;;;;;23.63;3.65;;;;;;;;;;4964442;28;20034;-75
2021/03/28 00:51:08;;;;;;;15.73;3.28;;;;;;;;;;4961318;28;20062;-73
2021/03/28 00:53:46;;;;;;;22.75;4.35;;;;;;;;;;4952124;28;20027;-72
2021/03/28 00:56:18;;;;;;;25.05;5.50;;;;;;;;;;4962704;28;20031;-74
2021/03/28 00:58:47;;;;;;;21.60;3.45;;;;;;;;;;4969151;28;20046;-73
2021/03/28 01:01:45;;;;;;;23.77;3.97;;;;;;;;;;4966384;28;20072;-73
2021/03/28 01:04:25;;;;;;;19.40;4.20;;;;;;;;;;4943210;28;20061;-74
2021/03/28 01:06:55;;;;;;;20.90;4.47;;;;;;;;;;4967679;28;20054;-74
2021/03/28 01:09:33;;;;;;;19.75;3.03;;;;;;;;;;4963492;28;20366;-75
2021/03/28 01:12:05;;;;;;;20.48;3.75;;;;;;;;;;4959982;28;20031;-74
2021/03/28 01:14:39;;;;;;;21.00;3.60;;;;;;;;;;4958054;28;20027;-72
2021/03/28 01:17:22;;;;;;;18.77;3.15;;;;;;;;;;4954326;28;20413;-72
2021/03/28 01:19:51;;;;;;;20.70;3.65;;;;;;;;;;4966075;28;20023;-72
2021/03/28 01:22:20;;;;;;;16.65;3.17;;;;;;;;;;4967372;28;20400;-72
2021/03/28 01:24:52;;;;;;;21.70;3.45;;;;;;;;;;4965752;28;20045;-74
2021/03/28 01:27:37;;;;;;;20.50;3.20;;;;;;;;;;4960806;28;20031;-73
2021/03/28 01:30:09;;;;;;;26.58;4.90;;;;;;;;;;4962649;28;20031;-72
2021/03/28 01:32:35;;;;;;;14.40;3.03;;;;;;;;;;4966986;28;20543;-72
2021/03/28 01:35:13;;;;;;;14.77;2.75;;;;;;;;;;4966825;28;20118;-73
2021/03/28 01:37:48;;;;;;;20.30;3.08;;;;;;;;;;4966950;28;20026;-73
2021/03/28 01:40:32;;;;;;;12.75;2.58;;;;;;;;;;4964183;28;20050;-72
2021/03/28 01:43:17;;;;;;;19.60;3.45;;;;;;;;;;4955195;28;20035;-73
2021/03/28 01:45:57;;;;;;;14.93;3.40;;;;;;;;;;4962541;28;20595;-75
2021/03/28 01:48:38;;;;;;;15.88;2.92;;;;;;;;;;4959733;28;20046;-72
2021/03/28 01:51:16;;;;;;;12.23;2.72;;;;;;;;;;4967088;28;20031;-74
2021/03/28 01:53:48;;;;;;;17.40;3.03;;;;;;;;;;4966879;28;20023;-74
2021/03/28 01:56:22;;;;;;;27.73;3.70;;;;;;;;;;4954161;28;20161;-73
2021/03/28 01:59:07;;;;;;;16.73;3.63;;;;;;;;;;4966793;28;20106;-74
2021/03/28 02:01:41;;;;;;;13.90;2.63;;;;;;;;;;4965561;28;20034;-75
2021/03/28 02:04:16;;;;;;;19.60;3.10;;;;;;;;;;4954654;28;20106;-74
2021/03/28 02:06:42;;;;;;;19.65;2.70;;;;;;;;;;4966182;28;20392;-72
2021/03/28 02:09:26;;;;;;;13.55;3.13;;;;;;;;;;4967309;28;20039;-72
2021/03/28 02:12:01;;;;;;;20.48;3.65;;;;;;;;;;4966788;28;20123;-72
2021/03/28 02:14:52;;;;;;;12.05;3.15;;;;;;;;;;4966523;28;20339;-73
2021/03/28 02:17:27;;;;;;;15.52;2.22;;;;;;;;;;4952063;28;20084;-72
2021/03/28 02:19:52;;;;;;;14.35;2.90;;;;;;;;;;4954811;28;20039;-72
2021/03/28 02:22:26;;;;;;;14.88;3.47;;;;;;;;;;4975500;28;20023;-73
2021/03/28 02:24:58;;;;;;;14.15;2.55;;;;;;;;;;4978135;28;20027;-73
2021/03/28 02:27:23;;;;;;;13.90;2.65;;;;;;;;;;4957532;28;20038;-74
2021/03/28 02:30:08;;;;;;;14.15;2.10;;;;;;;;;;4965452;28;20084;-72
2021/03/28 02:32:49;;;;;;;12.57;2.90;;;;;;;;;;4966329;28;20545;-73
2021/03/28 02:35:35;;;;;;;12.35;2.83;;;;;;;;;;4966080;28;20543;-74
2021/03/28 02:38:20;;;;;;;19.38;3.20;;;;;;;;;;4945303;28;20047;-75
2021/03/28 02:40:49;;;;;;;20.67;3.50;;;;;;;;;;4955153;28;20022;-72
2021/03/28 02:43:39;;;;;;;11.20;2.15;;;;;;;;;;4951088;28;20108;-72
2021/03/28 02:46:05;;;;;;;;;;;;;;;;;;4966682;28;20031;-73
2021/03/28 02:48:58;;;;;;;19.17;2.83;;;;;;;;;;4966082;28;19910;-72
2021/03/28 02:51:43;;;;;;;20.33;3.33;;;;;;;;;;4954629;28;20039;-73
2021/03/28 02:54:15;;;;;;;11.10;2.45;;;;;;;;;;4952922;28;20025;-73
2021/03/28 02:56:47;;;;;;;14.50;2.75;;;;;;;;;;4963431;28;20026;-72
2021/03/28 02:59:16;;;;;;;11.88;2.55;;;;;;;;;;4961357;28;20088;-72
2021/03/28 03:01:53;;;;;;;12.15;2.10;;;;;;;;;;4966345;28;20056;-72
2021/03/28 03:04:36;;;;;;;16.23;2.78;;;;;;;;;;4963468;28;20141;-72
2021/03/28 03:07:11;;;;;;;21.23;3.40;;;;;;;;;;4966482;28;20031;-72
2021/03/28 03:09:52;;;;;;;13.05;2.10;;;;;;;;;;4967355;28;20442;-72
2021/03/28 03:12:27;;;;;;;12.60;2.53;;;;;;;;;;4965964;28;20384;-74
2021/03/28 03:15:01;;;;;;;13.60;2.22;;;;;;;;;;4966708;28;20031;-72
2021/03/28 03:17:39;;;;;;;12.00;2.28;;;;;;;;;;4946685;28;20062;-72
2021/03/28 03:20:17;;;;;;;9.38;2.28;;;;;;;;;;4961299;28;20023;-72
2021/03/28 03:23:02;;;;;;;13.10;2.63;;;;;;;;;;4966291;28;20115;-72
2021/03/28 03:25:31;;;;;;;11.65;2.60;;;;;;;;;;4965705;28;20106;-73
2021/03/28 03:28:00;;;;;;;13.52;2.15;;;;;;;;;;4965997;28;20027;-72
2021/03/28 03:30:33;;;;;;;13.88;2.78;;;;;;;;;;4966157;28;20506;-72
2021/03/28 03:33:18;;;;;;;9.98;2.28;;;;;;;;;;4955470;28;20034;-72
2021/03/28 03:35:56;;;;;;;9.65;1.85;;;;;;;;;;4949348;28;20027;-74
2021/03/28 03:38:29;;;;;;;10.23;1.80;;;;;;;;;;4965781;28;20027;-72
2021/03/28 03:41:03;;;;;;;12.70;2.17;;;;;;;;;;4965674;28;20034;-74
2021/03/28 03:43:35;;;;;;;13.02;2.65;;;;;;;;;;4954895;28;20058;-73
2021/03/28 03:46:01;;;;;;;13.68;2.35;;;;;;;;;;4949733;28;20106;-72
2021/03/28 03:48:46;;;;;;;10.05;1.92;;;;;;;;;;4955698;28;20106;-73
2021/03/28 03:51:31;;;;;;;11.95;1.83;;;;;;;;;;4964003;28;20086;-72
2021/03/28 03:54:04;;;;;;;12.65;2.70;;;;;;;;;;4965420;28;20030;-72
2021/03/28 03:56:41;;;;;;;12.13;2.58;;;;;;;;;;4946262;28;20035;-72
2021/03/28 03:59:07;;;;;;;11.32;2.08;;;;;;;;;;4944189;28;20035;-76
2021/03/28 04:01:37;;;;;;;16.08;2.58;;;;;;;;;;4959576;28;20042;-74
2021/03/28 04:04:15;;;;;;;14.45;2.40;;;;;;;;;;4957772;28;20039;-72
2021/03/28 04:07:00;;;;;;;9.43;2.13;;;;;;;;;;4962567;28;20034;-72
2021/03/28 04:09:28;;;;;;;13.13;2.38;;;;;;;;;;4962933;28;20041;-72
2021/03/28 04:12:06;;;;;;;10.65;2.08;;;;;;;;;;4955413;28;20117;-73
2021/03/28 04:14:32;;;;;;;11.18;1.73;;;;;;;;;;4956479;28;20138;-73
2021/03/28 04:17:04;;;;;;;8.35;1.80;;;;;;;;;;4962202;28;20441;-72
2021/03/28 04:19:47;;;;;;;11.05;1.95;;;;;;;;;;4960912;28;20384;-72
2021/03/28 04:22:25;;;;;;;16.75;3.35;;;;;;;;;;4968290;28;20038;-72
2021/03/28 04:24:52;;;;;;;12.00;1.95;;;;;;;;;;4954538;28;20054;-73
2021/03/28 04:27:24;;;;;;;11.00;2.45;;;;;;;;;;4966617;28;20039;-72
2021/03/28 04:29:51;;;;;;;7.65;1.98;;;;;;;;;;4968013;28;20499;-72
2021/03/28 04:32:36;;;;;;;10.15;2.90;;;;;;;;;;4966141;28;20121;-72
2021/03/28 04:35:21;;;;;;;12.40;3.00;;;;;;;;;;4951746;28;20023;-72
2021/03/28 04:38:04;;;;;;;11.73;2.10;;;;;;;;;;4948830;28;20092;-72
2021/03/28 04:40:33;;;;;;;13.38;3.10;;;;;;;;;;4954757;28;20027;-72
2021/03/28 04:43:31;;;;;;;10.77;2.15;;;;;;;;;;4967835;28;20058;-72
2021/03/28 04:46:15;;;;;;;8.80;2.03;;;;;;;;;;4936247;28;20035;-72
2021/03/28 04:48:59;;;;;;;8.90;2.10;;;;;;;;;;4948081;28;20042;-74
2021/03/28 04:51:57;;;;;;;12.10;2.42;;;;;;;;;;4960302;28;20157;-72
2021/03/28 04:54:42;;;;;;;10.52;2.72;;;;;;;;;;4959553;28;20055;-74
2021/03/28 04:57:35;;;;;;;15.90;1.80;;;;;;;;;;4948193;28;20027;-72
2021/03/28 05:00:19;;;;;;;11.10;2.10;;;;;;;;;;4960895;28;20065;-73
2021/03/28 05:02:45;;;;;;;12.30;2.50;;;;;;;;;;4954648;28;20480;-75
2021/03/28 05:05:26;;;;;;;4.70;1.30;;;;;;;;;;4967496;28;20061;-72
2021/03/28 05:07:58;;;;;;;10.40;1.95;;;;;;;;;;4952367;28;20037;-72
2021/03/28 05:10:24;;;;;;;12.68;3.60;;;;;;;;;;4956072;28;20039;-73
2021/03/28 05:12:50;;;;;;;12.15;3.20;;;;;;;;;;4954046;28;20035;-72
2021/03/28 05:15:35;;;;;;;8.63;1.70;;;;;;;;;;4947110;28;20112;-72
2021/03/28 05:18:21;;;;;;;18.88;3.05;;;;;;;;;;4947570;28;20043;-73
2021/03/28 05:21:06;;;;;;;14.77;2.58;;;;;;;;;;4966720;28;20043;-74
2021/03/28 05:23:52;;;;;;;15.48;2.75;;;;;;;;;;4954812;28;20050;-73
2021/03/28 05:26:36;;;;;;;15.98;2.38;;;;;;;;;;4969174;28;20031;-74
2021/03/28 05:29:21;;;;;;;7.43;2.00;;;;;;;;;;4979804;28;20046;-75
2021/03/28 05:32:08;;;;;;;12.00;2.08;;;;;;;;;;4952189;28;20073;-73
2021/03/28 05:34:58;;;;;;;10.88;4.25;;;;;;;;;;4954529;28;20041;-72
2021/03/28 05:37:24;;;;;;;;;;;;;;;;;;4957141;28;20435;-72
2021/03/28 05:40:08;;;;;;;5.53;2.22;;;;;;;;;;4951292;28;19953;-73
2021/03/28 05:42:42;;;;;;;13.60;2.67;;;;;;;;;;4955051;28;20023;-72
2021/03/28 05:45:26;;;;;;;10.70;1.90;;;;;;;;;;4966486;28;20484;-73
2021/03/28 05:48:05;;;;;;;10.70;2.05;;;;;;;;;;4956730;28;20019;-73
2021/03/28 05:50:33;;;;;;;8.45;2.92;;;;;;;;;;4962525;28;20073;-72
2021/03/28 05:53:27;;;;;;;11.18;2.55;;;;;;;;;;4957790;28;20027;-74
2021/03/28 05:56:04;;;;;;;9.18;2.08;;;;;;;;;;4962068;28;20058;-72
2021/03/28 05:58:39;;;;;;;12.60;2.30;;;;;;;;;;4960902;28;20027;-73
2021/03/28 06:01:08;;;;;;;7.60;1.80;;;;;;;;;;4966612;28;20097;-72
2021/03/28 06:03:53;;;;;;;12.70;2.30;;;;;;;;;;4963781;28;20054;-73
2021/03/28 06:06:33;;;;;;;10.63;2.80;;;;;;;;;;4963036;28;20027;-73
2021/03/28 06:08:59;;;;;;;;;;;;;;;;;;4957999;28;20487;-74
2021/03/28 06:11:40;;;;;;;8.88;1.83;;;;;;;;;;4966789;28;19914;-74
2021/03/28 06:14:25;;;;;;;13.02;2.72;;;;;;;;;;4965225;28;20031;-72
2021/03/28 06:16:53;;;;;;;9.05;1.83;;;;;;;;;;4960277;28;20031;-72
2021/03/28 06:19:37;;;;;;;14.10;2.15;;;;;;;;;;4958952;28;20027;-72
2021/03/28 06:22:06;;;;;;;10.18;2.05;;;;;;;;;;4966155;28;20046;-73
2021/03/28 06:24:32;;;;;;;10.80;2.55;;;;;;;;;;4967911;28;20030;-73
2021/03/28 06:27:10;;;;;;;12.48;2.45;;;;;;;;;;4966682;28;20030;-73
2021/03/28 06:29:42;;;;;;;10.57;2.35;;;;;;;;;;4953275;28;20099;-74
2021/03/28 06:32:17;;;;;;;9.40;2.38;;;;;;;;;;4966865;28;20034;-73
2021/03/28 06:35:12;;;;;;;9.98;2.72;;;;;;;;;;4964442;28;20488;-73
2021/03/28 06:38:06;;;;;;;12.35;2.22;;;;;;;;;;4966521;28;20031;-72
2021/03/28 06:40:47;;;;;;;9.65;2.42;;;;;;;;;;4953178;28;20058;-74
2021/03/28 06:43:32;;;;;;;17.15;3.25;;;;;;;;;;4965974;28;20523;-72
2021/03/28 06:46:10;;;;;;;13.02;2.67;;;;;;;;;;4947081;28;20031;-75
2021/03/28 06:48:48;;;;;;;9.65;2.45;;;;;;;;;;4948553;28;20501;-73
2021/03/28 06:51:33;;;;;;;12.05;3.30;;;;;;;;;;4965916;28;20084;-73
2021/03/28 06:54:11;;;;;;;14.25;3.28;;;;;;;;;;4950694;28;20484;-73
2021/03/28 06:56:49;;;;;;;7.60;2.20;;;;;;;;;;4964962;28;20165;-73
2021/03/28 06:59:34;;;;;;;9.73;2.70;;;;;;;;;;4966741;28;20429;-73
2021/03/28 07:02:03;;;;;;;11.27;3.40;;;;;;;;;;4952343;28;20042;-73
2021/03/28 07:04:42;;;;;;;12.93;2.85;;;;;;;;;;4964692;28;20026;-74
2021/03/28 07:07:17;;;;;;;10.48;2.03;;;;;;;;;;4955001;28;20110;-73
2021/03/28 07:10:03;;;;;;;8.35;2.85;;;;;;;;;;4964406;28;20538;-73
2021/03/28 07:12:48;;;;;;;8.57;3.03;;;;;;;;;;4964411;28;20554;-74
2021/03/28 07:15:32;;;;;;;14.82;2.85;;;;;;;;;;4965050;28;20031;-73
2021/03/28 07:18:23;;;;;;;8.38;2.72;;;;;;;;;;4965423;28;20034;-73
2021/03/28 07:20:54;;;;;;;10.20;1.75;;;;;;;;;;4965917;28;20034;-73
2021/03/28 07:23:28;;;;;;;8.02;3.15;;;;;;;;;;4963161;28;20075;-73
2021/03/28 07:26:11;;;;;;;9.63;2.40;;;;;;;;;;4955439;28;20023;-73
2021/03/28 07:28:46;;;;;;;12.50;3.38;;;;;;;;;;4961298;28;20115;-74
2021/03/28 07:31:30;;;;;;;7.18;2.17;;;;;;;;;;4956699;28;20092;-73
2021/03/28 07:34:10;;;;;;;10.00;2.35;;;;;;;;;;4965549;28;20046;-73
2021/03/28 07:36:55;;;;;;;9.95;2.10;;;;;;;;;;4967154;28;20411;-73
2021/03/28 07:39:33;;;;;;;12.38;3.78;;;;;;;;;;4954799;28;20406;-74
2021/03/28 07:42:17;;;;;;;11.85;2.63;;;;;;;;;;4967304;28;20031;-73
2021/03/28 07:44:46;;;;;;;12.82;2.30;;;;;;;;;;4953200;28;20039;-73
2021/03/28 07:47:15;;;;;;;11.25;3.25;;;;;;;;;;4952635;28;20062;-72
2021/03/28 07:50:01;;;;;;;9.23;2.63;;;;;;;;;;4949877;28;20032;-73
2021/03/28 07:52:38;;;;;;;10.98;2.97;;;;;;;;;;4950316;28;20042;-73
2021/03/28 07:55:04;;;;;;;9.52;2.95;;;;;;;;;;4951732;28;20035;-73
2021/03/28 07:57:36;;;;;;;10.98;3.05;;;;;;;;;;4960598;28;20041;-71
2021/03/28 08:00:16;;;;;;;15.68;3.42;;;;;;;;;;4951100;28;20037;-71
2021/03/28 08:02:56;;;;;;;6.65;1.98;;;;;;;;;;4956104;28;20097;-71
2021/03/28 08:05:32;;;;;;;12.18;2.28;;;;;;;;;;4951824;28;20076;-72
2021/03/28 08:08:07;;;;;;;12.05;2.58;;;;;;;;;;4957713;28;20035;-72
2021/03/28 08:10:33;;;;;;;8.05;2.63;;;;;;;;;;4950943;28;20030;-71
2021/03/28 08:13:05;;;;;;;9.27;2.33;;;;;;;;;;4954211;28;20027;-71
2021/03/28 08:15:39;;;;;;;8.27;2.38;;;;;;;;;;4950277;28;20062;-71
2021/03/28 08:18:14;;;;;;;13.95;2.92;;;;;;;;;;4954206;28;20523;-72
2021/03/28 08:20:52;;;;;;;17.98;3.35;;;;;;;;;;4950533;28;20501;-72
2021/03/28 08:23:19;;;;;;;9.60;2.45;;;;;;;;;;4947998;28;20035;-73
2021/03/28 08:26:03;;;;;;;7.97;2.58;;;;;;;;;;4947079;28;20084;-73
2021/03/28 08:28:44;;;;;;;11.45;1.85;;;;;;;;;;4951974;28;20497;-73
2021/03/28 08:31:28;;;;;;;14.32;2.88;;;;;;;;;;4951198;28;20037;-72
2021/03/28 08:34:14;;;;;;;10.27;2.53;;;;;;;;;;4952507;28;20374;-71
2021/03/28 08:36:40;;;;;;;8.75;2.03;;;;;;;;;;4965170;28;20055;-71
2021/03/28 08:39:12;;;;;;;9.80;2.17;;;;;;;;;;4952895;28;20034;-71
2021/03/28 08:41:47;;;;;;;10.60;2.40;;;;;;;;;;4955068;28;20120;-71
2021/03/28 08:44:16;;;;;;;11.45;1.73;;;;;;;;;;4951373;28;20435;-71
2021/03/28 08:46:54;;;;;;;14.02;2.47;;;;;;;;;;4960443;28;20492;-72
2021/03/28 08:49:26;;;;;;;8.95;2.28;;;;;;;;;;4951780;28;20103;-72
2021/03/28 08:52:18;;;;;;;11.55;2.35;;;;;;;;;;4953145;28;20089;-71
2021/03/28 08:54:44;;;;;;;11.43;2.70;;;;;;;;;;4950705;28;20035;-72
2021/03/28 08:57:10;;;;;;;10.98;2.78;;;;;;;;;;4950944;28;20037;-71
2021/03/28 08:59:42;;;;;;;11.38;2.53;;;;;;;;;;4951711;28;20370;-74
2021/03/28 09:02:07;;;;;;;9.88;2.90;;;;;;;;;;4950312;28;20102;-74
2021/03/28 09:04:40;;;;;;;7.90;2.20;;;;;;;;;;4952800;28;20109;-73
2021/03/28 09:07:25;;;;;;;8.88;2.58;;;;;;;;;;4949823;28;20118;-73
2021/03/28 09:10:06;;;;;;;10.32;2.70;;;;;;;;;;4958747;28;20060;-73
2021/03/28 09:12:50;;;;;;;8.05;2.25;;;;;;;;;;4954189;28;20035;-73
2021/03/28 09:15:19;;;;;;;12.63;2.00;;;;;;;;;;4952504;28;20027;-74
2021/03/28 09:17:58;;;;;;;7.18;2.33;;;;;;;;;;4959828;28;20043;-73
2021/03/28 09:20:29;;;;;;;13.30;2.22;;;;;;;;;;4955945;28;20050;-73
2021/03/28 09:23:03;;;;;;;12.32;2.45;;;;;;;;;;4963754;28;20373;-73
2021/03/28 09:25:32;;;;;;;8.82;2.03;;;;;;;;;;4958388;28;20058;-74
2021/03/28 09:28:13;;;;;;;10.43;2.58;;;;;;;;;;4954006;28;20055;-73
2021/03/28 09:30:39;;;;;;;12.85;2.53;;;;;;;;;;4961549;28;20027;-74
2021/03/28 09:33:17;;;;;;;10.10;2.30;;;;;;;;;;4966448;28;20035;-71
2021/03/28 09:36:00;;;;;;;13.25;2.38;;;;;;;;;;4957475;28;20034;-71
2021/03/28 09:38:42;;;;;;;9.77;2.80;;;;;;;;;;4958579;28;20110;-72
2021/03/28 09:41:28;;;;;;;9.48;2.80;;;;;;;;;;4961809;28;20026;-71
2021/03/28 09:43:54;;;;;;;15.35;2.30;;;;;;;;;;4955294;28;20065;-70
2021/03/28 09:46:32;;;;;;;11.93;2.70;;;;;;;;;;4955113;28;20051;-71
2021/03/28 09:49:01;;;;;;;9.02;2.08;;;;;;;;;;4951086;28;20059;-71
2021/03/28 09:51:30;;;;;;;15.33;2.27;;;;;;;;;;4952696;28;20028;-71
2021/03/28 09:54:02;;;;;;;12.80;1.88;;;;;;;;;;4964837;28;20041;-71
2021/03/28 09:56:47;;;;;;;12.52;2.20;;;;;;;;;;4988388;28;20026;-71
2021/03/28 09:59:31;;;;;;;9.13;2.08;;;;;;;;;;4985803;28;20029;-72
2021/03/28 10:02:16;;;;;;;12.63;2.67;;;;;;;;;;4985779;28;20038;-72
2021/03/28 10:04:47;;;;;;;19.25;3.22;;;;;;;;;;4981500;28;20113;-71
2021/03/28 10:07:14;;;;;;;11.38;2.45;;;;;;;;;;4989503;28;20045;-71
2021/03/28 10:10:03;;;;;;;8.93;1.88;;;;;;;;;;4985481;28;20030;-73
2021/03/28 10:12:34;;;;;;;10.75;2.30;;;;;;;;;;4984507;28;20030;-71
2021/03/28 10:15:07;;;;;;;9.10;1.95;;;;;;;;;;4986634;28;20432;-70
2021/03/28 10:17:46;;;;;;;10.23;2.10;;;;;;;;;;4984453;28;20027;-71
2021/03/28 10:20:22;;;;;;;9.25;2.00;;;;;;;;;;4986068;28;20028;-70
2021/03/28 10:22:57;;;;;;;14.55;2.83;;;;;;;;;;4986670;28;20061;-70
2021/03/28 10:25:45;;;;;;;14.32;2.35;;;;;;;;;;4984236;28;20072;-70
2021/03/28 10:28:30;;;;;;;8.30;1.88;;;;;;;;;;4972238;28;20502;-70
2021/03/28 10:30:55;;;;;;;10.63;1.63;;;;;;;;;;4985361;28;20399;-71
2021/03/28 10:33:21;;;;;;;11.40;2.40;;;;;;;;;;4986323;28;20046;-70
2021/03/28 10:36:06;;;;;;;16.20;2.08;;;;;;;;;;4985661;28;20027;-73
2021/03/28 10:38:41;;;;;;;10.10;1.85;;;;;;;;;;4974618;28;20030;-70
2021/03/28 10:41:17;;;;;;;8.75;1.95;;;;;;;;;;4984737;28;20043;-70
2021/03/28 10:44:01;;;;;;;10.02;2.08;;;;;;;;;;4984826;28;20338;-70
2021/03/28 10:46:27;;;;;;;9.50;2.03;;;;;;;;;;4982548;28;20031;-73
2021/03/28 10:49:17;;;;;;;14.07;2.58;;;;;;;;;;4985315;28;20033;-70
2021/03/28 10:52:01;;;;;;;14.73;3.13;;;;;;;;;;4986894;28;20399;-71
2021/03/28 10:54:33;;;;;;;11.05;2.13;;;;;;;;;;4983558;28;20060;-70
2021/03/28 10:57:18;;;;;;;11.65;2.15;;;;;;;;;;4987165;28;20107;-71
2021/03/28 11:00:03;;;;;;;9.75;2.15;;;;;;;;;;4985410;28;20034;-70
2021/03/28 11:02:42;;;;;;;10.07;1.58;;;;;;;;;;4988031;28;20034;-70
2021/03/28 11:05:27;;;;;;;9.30;1.90;;;;;;;;;;4982591;28;20143;-71
2021/03/28 11:08:06;;;;;;;8.98;1.67;;;;;;;;;;4983269;28;20030;-70
2021/03/28 11:10:51;;;;;;;12.65;2.25;;;;;;;;;;4981245;28;20511;-72
2021/03/28 11:13:20;;;;;;;21.45;2.70;;;;;;;;;;4983280;28;20030;-75
2021/03/28 11:16:04;;;;;;;10.85;2.25;;;;;;;;;;4986088;28;20041;-72
2021/03/28 11:18:37;;;;;;;11.55;2.25;;;;;;;;;;4993230;28;20027;-72
2021/03/28 11:21:09;;;;;;;14.60;2.00;;;;;;;;;;4979473;28;20114;-72
2021/03/28 11:23:46;;;;;;;12.50;2.83;;;;;;;;;;4987667;28;20033;-71
2021/03/28 11:26:39;;;;;;;12.95;2.95;;;;;;;;;;4985145;28;20026;-71
2021/03/28 11:29:23;;;;;;;14.63;2.78;;;;;;;;;;4971041;28;20034;-74
2021/03/28 11:31:58;;;;;;;8.70;2.08;;;;;;;;;;4986918;28;20030;-72
2021/03/28 11:34:43;;;;;;;23.67;3.03;;;;;;;;;;4988588;28;20033;-72
2021/03/28 11:37:27;;;;;;;15.95;2.28;;;;;;;;;;4987753;28;20218;-69
2021/03/28 11:40:13;;;;;;;13.38;2.22;;;;;;;;;;4986248;28;20031;-73
2021/03/28 11:42:39;;;;;;;18.20;3.13;;;;;;;;;;4987839;28;20461;-73
2021/03/28 11:45:25;;;;;;;16.30;2.42;;;;;;;;;;4987964;28;20034;-72
2021/03/28 11:47:55;;;;;;;15.35;2.33;;;;;;;;;;4979199;28;20124;-70
2021/03/28 11:50:23;;;;;;;14.32;2.47;;;;;;;;;;4988462;28;20037;-69
2021/03/28 11:53:02;;;;;;;18.08;2.85;;;;;;;;;;4988061;28;20022;-70
2021/03/28 11:55:28;;;;;;;26.92;2.42;;;;;;;;;;4984774;28;20049;-69
2021/03/28 11:58:08;;;;;;;14.60;2.40;;;;;;;;;;4988223;28;20026;-71
2021/03/28 12:00:42;;;;;;;12.02;2.05;;;;;;;;;;4988059;28;20061;-70
2021/03/28 12:03:20;;;;;;;20.02;3.35;;;;;;;;;;4979410;28;20475;-70
2021/03/28 12:05:55;;;;;;;11.85;1.98;;;;;;;;;;4988919;28;20049;-69
2021/03/28 12:08:22;;;;;;;12.32;2.70;;;;;;;;;;4986120;28;20591;-70
2021/03/28 12:10:49;;;;;;;11.57;2.45;;;;;;;;;;4988942;28;20022;-69
2021/03/28 12:13:30;;;;;;;16.13;2.70;;;;;;;;;;5020855;28;20050;-70
2021/03/28 12:15:58;;;;;;;14.55;2.17;;;;;;;;;;5002626;28;20064;-70
2021/03/28 12:18:24;;;;;;;13.98;1.70;;;;;;;;;;4998666;28;20041;-71
2021/03/28 12:20:59;;;;;;;17.02;2.55;;;;;;;;;;4987231;28;20126;-69
2021/03/28 12:23:34;;;;;;;13.90;3.20;;;;;;;;;;4987440;28;20031;-71
2021/03/28 12:26:06;;;;;;;12.52;2.80;;;;;;;;;;4987425;28;20079;-70
2021/03/28 12:28:50;;;;;;;13.32;2.15;;;;;;;;;;4981601;28;20414;-70
2021/03/28 12:31:34;;;;;;;22.13;4.00;;;;;;;;;;4963807;28;20054;-70
2021/03/28 12:34:00;;;;;;;12.30;1.77;;;;;;;;;;4964506;28;20027;-70
2021/03/28 12:36:45;;;;;;;13.52;2.63;;;;;;;;;;4969112;28;20472;-70
2021/03/28 12:39:13;;;;;;;14.27;2.17;;;;;;;;;;4968613;28;20381;-70
2021/03/28 12:41:40;;;;;;;11.63;2.78;;;;;;;;;;4968616;28;20034;-70
2021/03/28 12:44:06;;;;;;;13.10;3.17;;;;;;;;;;4969166;28;20038;-70
2021/03/28 12:46:49;;;;;;;19.55;2.45;;;;;;;;;;4967970;28;20403;-71
2021/03/28 12:49:23;;;;;;;12.93;2.03;;;;;;;;;;4968566;28;20069;-71
2021/03/28 12:51:59;;;;;;;17.90;2.20;;;;;;;;;;4952632;28;20031;-70
2021/03/28 12:54:32;;;;;;;14.23;2.88;;;;;;;;;;4965980;28;20052;-70
2021/03/28 12:57:02;;;;;;;11.07;2.30;;;;;;;;;;4967825;28;20438;-69
2021/03/28 12:59:33;;;;;;;14.27;2.03;;;;;;;;;;4966637;28;20022;-70
2021/03/28 13:02:18;;;;;;;11.88;2.03;;;;;;;;;;4968265;28;20569;-70
2021/03/28 13:05:10;;;;;;;11.68;1.98;;;;;;;;;;4967377;28;20271;-70
2021/03/28 13:07:42;;;;;;;14.32;1.95;;;;;;;;;;4960053;28;20082;-70
2021/03/28 13:10:28;;;;;;;13.90;2.55;;;;;;;;;;4967451;28;20026;-70
2021/03/28 13:12:57;;;;;;;11.10;2.25;;;;;;;;;;4966965;28;20050;-69
2021/03/28 13:15:25;;;;;;;15.00;2.83;;;;;;;;;;4968797;28;20034;-70
2021/03/28 13:18:02;;;;;;;12.30;2.65;;;;;;;;;;4969798;28;20503;-69
2021/03/28 13:20:32;;;;;;;15.68;2.55;;;;;;;;;;4966995;28;20023;-70
2021/03/28 13:23:06;;;;;;;17.98;2.03;;;;;;;;;;4965212;28;20092;-70
2021/03/28 13:25:32;;;;;;;16.58;2.80;;;;;;;;;;4969225;28;20037;-70
2021/03/28 13:28:20;;;;;;;15.02;3.28;;;;;;;;;;4972258;28;20528;-70
2021/03/28 13:30:47;;;;;;;15.90;2.72;;;;;;;;;;4967302;28;20027;-70
2021/03/28 13:33:22;;;;;;;15.07;2.42;;;;;;;;;;4969341;28;20035;-69
2021/03/28 13:35:49;;;;;;;14.57;2.17;;;;;;;;;;4968997;28;20018;-69
2021/03/28 13:38:27;;;;;;;16.83;2.72;;;;;;;;;;4965615;28;20077;-70
2021/03/28 13:40:55;;;;;;;16.35;2.75;;;;;;;;;;4966302;28;20026;-71
2021/03/28 13:43:22;;;;;;;19.33;2.15;;;;;;;;;;4967512;28;20107;-70
2021/03/28 13:45:49;;;;;;;15.18;3.10;;;;;;;;;;4962896;28;20034;-70
2021/03/28 13:48:17;;;;;;;10.00;2.70;;;;;;;;;;4966068;28;20059;-70
2021/03/28 13:50:44;;;;;;;16.55;2.85;;;;;;;;;;4962924;28;20033;-70
2021/03/28 13:53:20;;;;;;;18.27;2.92;;;;;;;;;;4968378;28;20050;-70
2021/03/28 13:55:58;;;;;;;18.98;3.72;;;;;;;;;;4968465;28;20018;-71
2021/03/28 13:58:29;;;;;;;13.68;3.40;;;;;;;;;;4967742;28;20027;-70
2021/03/28 14:01:05;;;;;;;15.75;3.47;;;;;;;;;;4967025;28;20396;-70
2021/03/28 14:03:33;;;;;;;16.58;2.30;;;;;;;;;;4968373;28;20472;-70
2021/03/28 14:06:05;;;;;;;16.38;3.30;;;;;;;;;;4955308;28;20027;-70
2021/03/28 14:08:31;;;;;;;16.90;3.70;;;;;;;;;;4955280;28;20076;-70
2021/03/28 14:10:58;;;;;;;12.93;2.40;;;;;;;;;;4956215;28;20031;-70
2021/03/28 14:13:26;;;;;;;16.02;2.28;;;;;;;;;;4964061;28;20031;-70
2021/03/28 14:16:00;;;;;;;9.00;2.53;;;;;;;;;;4960731;28;20034;-70
2021/03/28 14:18:31;;;;;;;12.13;2.33;;;;;;;;;;4965026;28;20023;-71
2021/03/28 14:21:22;;;;;;;10.85;3.28;;;;;;;;;;4965831;28;20019;-71
2021/03/28 14:23:54;;;;;;;17.48;2.20;;;;;;;;;;4949547;28;20054;-71
2021/03/28 14:26:25;;;;;;;12.45;3.38;;;;;;;;;;4963022;28;20131;-72
2021/03/28 14:28:51;;;;;;;11.10;2.58;;;;;;;;;;4971188;28;20023;-71
2021/03/28 14:31:16;;;;;;;14.95;2.40;;;;;;;;;;4976826;28;20023;-71
2021/03/28 14:33:57;;;;;;;11.43;3.08;;;;;;;;;;4966197;28;20510;-71
2021/03/28 14:36:26;;;;;;;14.98;3.38;;;;;;;;;;4979984;28;20070;-71
2021/03/28 14:38:52;;;;;;;15.25;2.45;;;;;;;;;;4979612;28;20043;-70
2021/03/28 14:41:37;;;;;;;16.63;2.35;;;;;;;;;;4971715;28;20035;-70
2021/03/28 14:44:16;;;;;;;11.30;1.77;;;;;;;;;;4985098;28;20031;-70
2021/03/28 14:46:44;;;;;;;10.82;2.67;;;;;;;;;;4973161;28;20053;-70
2021/03/28 14:49:29;;;;;;;14.63;2.33;;;;;;;;;;4989297;28;20039;-70
2021/03/28 14:52:04;;;;;;;12.68;3.30;;;;;;;;;;4986908;28;20031;-69
2021/03/28 14:54:36;;;;;;;18.98;2.38;;;;;;;;;;4989813;28;20046;-70
2021/03/28 14:57:04;;;;;;;16.75;2.22;;;;;;;;;;4983633;28;20034;-70
2021/03/28 14:59:32;;;;;;;13.05;2.60;;;;;;;;;;4969820;28;21112;-69
2021/03/28 15:02:16;;;;;;;17.08;3.88;;;;;;;;;;4965928;28;20031;-69
2021/03/28 15:04:52;;;;;;;13.40;2.25;;;;;;;;;;4972824;28;20065;-70
2021/03/28 15:07:40;;;;;;;14.38;3.00;;;;;;;;;;4973646;28;20101;-70
2021/03/28 15:10:12;;;;;;;21.38;3.72;;;;;;;;;;4969370;28;20035;-69
2021/03/28 15:12:41;;;;;;;16.20;2.25;;;;;;;;;;4971603;28;20030;-70
2021/03/28 15:15:19;;;;;;;16.40;2.08;;;;;;;;;;4971597;28;20019;-72
2021/03/28 15:17:51;;;;;;;16.58;2.53;;;;;;;;;;4973343;28;20063;-70
2021/03/28 15:20:23;;;;;;;15.80;2.00;;;;;;;;;;4972248;28;20092;-72
2021/03/28 15:23:00;;;;;;;18.10;2.25;;;;;;;;;;4973492;28;20106;-71
2021/03/28 15:25:29;;;;;;;11.43;2.13;;;;;;;;;;4981937;28;20052;-71